Bo Airport

Jump to: basic info | weather | comments

Related pages: nearby airports | nearby navaids | notams | map

Basic information (top)

Codes: KBS GFBO
Location: lon 7.944400, lat -11.761000, elev 328 ft / 100 m msl
Status: medium_airport
Scheduled airline service: yes
Links: Wikipedia Mobile

Weather (top)

Current conditions for Lungi International Airport 94nm (175km) WNW (rec'd 2015/03/05 19:00Z):

GFLL 051900Z 28008KT 9000 HZ SCT012 28/22 Q1009

Airport forecast for Lungi International Airport 94nm (175km) WNW (rec'd 2015/03/05 12:51Z):

TAF TAF GFLL 051000Z 0512/0618 3008KT 8000 HZ SKC 
      TEMPO 0515/0523 27006KT 8000 NSC 
      BECMG 0500/0602 21005KT 4000 BR SCT012 
      TEMPO 0503/0509 06004KT 7000 BR SCT009 
      TEMPO 0510/0516 27010KT 6000 HZ SKC

Latest comments (top)

No comments yet for Bo Airport

More... (top)

See also NOTAMs and nearby airports and navaids, or visit the Bo Airport page at the main OurAirports website..